createdAt,value
2019-04-06T00:01:43.515Z,4.23
2019-04-06T00:11:46.453Z,5.13
2019-04-06T00:21:49.417Z,3.70
2019-04-06T00:32:05.849Z,3.30
2019-04-06T00:42:08.770Z,2.63
2019-04-06T00:52:11.715Z,3.07
2019-04-06T01:02:14.821Z,2.90
2019-04-06T01:12:17.767Z,2.40
2019-04-06T01:22:20.715Z,1.97
2019-04-06T01:32:23.531Z,1.90
2019-04-06T01:42:26.511Z,1.83
2019-04-06T01:52:29.462Z,1.50
2019-04-06T02:02:34.941Z,1.60
2019-04-06T02:12:37.902Z,1.47
2019-04-06T02:22:40.842Z,1.30
2019-04-06T02:32:53.773Z,1.13
2019-04-06T02:43:01.013Z,1.20
2019-04-06T02:53:04.024Z,1.63
2019-04-06T03:03:07.013Z,1.47
2019-04-06T03:13:10.259Z,1.73
2019-04-06T03:23:13.323Z,1.90
2019-04-06T03:33:16.554Z,1.60
2019-04-06T03:43:19.559Z,1.80
2019-04-06T03:53:22.637Z,1.63
2019-04-06T04:03:25.531Z,2.10
2019-04-06T04:13:28.527Z,1.67
2019-04-06T04:23:31.484Z,2.43
2019-04-06T04:33:34.564Z,1.83
2019-04-06T04:43:37.584Z,3.03
2019-04-06T04:53:40.522Z,2.63
2019-04-06T05:03:43.514Z,2.27
2019-04-06T05:13:46.703Z,3.00
2019-04-06T05:23:49.841Z,2.63
2019-04-06T05:33:55.636Z,3.30
2019-04-06T05:43:58.678Z,2.70
2019-04-06T05:54:01.446Z,3.33
2019-04-06T06:04:04.341Z,2.63
2019-04-06T06:14:07.368Z,3.07
2019-04-06T06:24:10.475Z,2.80
2019-04-06T06:34:13.320Z,3.13
2019-04-06T06:44:16.299Z,2.70
2019-04-06T06:54:19.216Z,2.40
2019-04-06T07:04:22.189Z,2.83
2019-04-06T07:14:25.166Z,2.70
2019-04-06T07:24:29.410Z,2.67
2019-04-06T07:34:32.513Z,2.40
2019-04-06T07:44:35.969Z,2.30
2019-04-06T07:54:39.149Z,2.50
2019-04-06T08:04:42.450Z,2.73
2019-04-06T08:14:46.119Z,2.30
2019-04-06T08:24:51.186Z,2.10
2019-04-06T08:34:54.398Z,2.40
2019-04-06T08:44:57.845Z,2.20
2019-04-06T08:55:01.361Z,1.93
2019-04-06T09:05:04.621Z,2.27
2019-04-06T09:15:09.140Z,2.00
2019-04-06T09:25:12.117Z,1.67
2019-04-06T09:35:15.457Z,1.70
2019-04-06T09:45:30.754Z,1.97
2019-04-06T09:55:53.598Z,1.60
2019-04-06T10:06:34.333Z,1.40
2019-04-06T10:16:58.385Z,0.85
2019-04-06T10:27:33.083Z,1.70
2019-04-06T10:37:56.046Z,1.17
2019-04-06T10:48:15.815Z,1.60
2019-04-06T10:58:35.790Z,1.25
2019-04-06T11:09:04.281Z,1.17
2019-04-06T11:19:28.238Z,1.00
2019-04-06T11:29:49.189Z,1.00
2019-04-06T11:40:04.498Z,1.00
2019-04-06T11:50:30.070Z,0.90
2019-04-06T12:01:10.517Z,1.03
2019-04-06T12:11:48.535Z,1.17
2019-04-06T12:22:09.510Z,1.87
2019-04-06T12:32:29.519Z,1.70
2019-04-06T12:42:44.277Z,1.10
2019-04-06T12:53:12.887Z,1.10
2019-04-06T13:03:28.415Z,0.90
2019-04-06T13:13:46.273Z,0.90
2019-04-06T13:24:21.209Z,0.80
2019-04-06T13:34:46.608Z,0.90
2019-04-06T13:44:59.273Z,0.70
2019-04-06T13:55:17.059Z,0.90
2019-04-06T14:05:45.862Z,1.03
2019-04-06T14:15:59.182Z,0.70
2019-04-06T14:26:34.447Z,1.20
2019-04-06T14:37:00.339Z,0.90
2019-04-06T14:47:13.816Z,0.63
2019-04-06T14:57:36.966Z,0.80
2019-04-06T15:07:58.255Z,1.20
2019-04-06T15:18:30.741Z,1.40
2019-04-06T15:28:51.071Z,1.10
2019-04-06T15:49:58.988Z,0.77
2019-04-06T16:00:20.155Z,0.90
2019-04-06T16:10:58.153Z,1.00
2019-04-06T16:21:26.679Z,1.30
2019-04-06T16:31:52.265Z,1.10
2019-04-06T16:42:17.856Z,0.83
2019-04-06T16:52:48.471Z,1.10
2019-04-06T17:03:06.586Z,1.45
2019-04-06T17:13:39.595Z,1.47
2019-04-06T17:24:01.294Z,1.30
2019-04-06T17:34:22.614Z,1.43
2019-04-06T17:44:46.008Z,1.87
2019-04-06T17:55:08.224Z,2.33
2019-04-06T18:05:39.731Z,1.77
2019-04-06T18:15:43.493Z,2.17
2019-04-06T18:25:46.947Z,1.83
2019-04-06T18:35:50.348Z,2.67
2019-04-06T18:45:54.593Z,2.50
2019-04-06T18:55:58.490Z,2.50
2019-04-06T19:06:02.512Z,2.10
2019-04-06T19:16:06.143Z,3.00
2019-04-06T19:26:09.457Z,5.33
2019-04-06T19:36:12.781Z,3.23
2019-04-06T19:46:16.167Z,2.90
2019-04-06T19:56:20.114Z,2.57
2019-04-06T20:06:23.820Z,3.10
2019-04-06T20:16:53.738Z,2.63
2019-04-06T20:27:00.315Z,3.40
2019-04-06T20:37:44.088Z,2.97
2019-04-06T20:48:11.613Z,2.43
2019-04-06T20:58:18.255Z,2.10
2019-04-06T21:08:21.719Z,3.13
2019-04-06T21:18:25.300Z,2.90
2019-04-06T21:28:29.900Z,2.87
2019-04-06T21:38:33.292Z,3.47
2019-04-06T21:48:36.803Z,3.03
2019-04-06T21:58:40.439Z,3.80
2019-04-06T22:08:45.948Z,3.67
2019-04-06T22:18:49.705Z,4.50
2019-04-06T22:28:52.610Z,4.20
2019-04-06T22:38:56.208Z,4.07
2019-04-06T22:48:59.525Z,5.00
2019-04-06T22:59:03.094Z,4.30
2019-04-06T23:09:08.758Z,5.50
2019-04-06T23:19:12.137Z,5.57
2019-04-06T23:29:15.531Z,4.60
2019-04-06T23:39:18.943Z,5.57
2019-04-06T23:49:22.430Z,5.83
2019-04-06T23:59:25.828Z,4.87
